sensor_id;sensor_type;location;lat;lon;timestamp;temperature;humidity
15288;DHT22;7745;48.708;9.026;2022-09-28T00:01:26;8.80;99.90
15288;DHT22;7745;48.708;9.026;2022-09-28T00:03:54;8.80;99.90
15288;DHT22;7745;48.708;9.026;2022-09-28T00:06:23;8.80;99.90
15288;DHT22;7745;48.708;9.026;2022-09-28T00:08:50;8.80;99.90
15288;DHT22;7745;48.708;9.026;2022-09-28T00:11:18;8.80;99.90
15288;DHT22;7745;48.708;9.026;2022-09-28T00:13:48;8.80;99.90
15288;DHT22;7745;48.708;9.026;2022-09-28T00:16:19;8.80;99.90
15288;DHT22;7745;48.708;9.026;2022-09-28T00:18:46;8.80;99.90
15288;DHT22;7745;48.708;9.026;2022-09-28T00:21:17;8.80;99.90
15288;DHT22;7745;48.708;9.026;2022-09-28T00:23:44;8.80;99.90
15288;DHT22;7745;48.708;9.026;2022-09-28T00:26:30;8.90;99.90
15288;DHT22;7745;48.708;9.026;2022-09-28T00:28:59;9.00;99.90
15288;DHT22;7745;48.708;9.026;2022-09-28T00:31:30;8.90;99.90
15288;DHT22;7745;48.708;9.026;2022-09-28T00:33:58;8.90;99.90
15288;DHT22;7745;48.708;9.026;2022-09-28T00:36:25;8.90;99.90
15288;DHT22;7745;48.708;9.026;2022-09-28T00:38:53;9.00;99.90
15288;DHT22;7745;48.708;9.026;2022-09-28T00:41:21;9.00;99.90
15288;DHT22;7745;48.708;9.026;2022-09-28T00:43:47;9.00;99.90
15288;DHT22;7745;48.708;9.026;2022-09-28T00:46:18;9.00;99.90
15288;DHT22;7745;48.708;9.026;2022-09-28T00:48:53;9.00;99.90
15288;DHT22;7745;48.708;9.026;2022-09-28T00:51:21;9.00;99.90
15288;DHT22;7745;48.708;9.026;2022-09-28T00:53:49;9.00;99.90
15288;DHT22;7745;48.708;9.026;2022-09-28T00:56:19;9.00;99.90
15288;DHT22;7745;48.708;9.026;2022-09-28T00:58:48;9.10;99.90
15288;DHT22;7745;48.708;9.026;2022-09-28T01:01:16;9.30;99.90
15288;DHT22;7745;48.708;9.026;2022-09-28T01:03:43;9.10;99.90
15288;DHT22;7745;48.708;9.026;2022-09-28T01:06:18;9.30;99.90
15288;DHT22;7745;48.708;9.026;2022-09-28T01:08:47;9.10;99.90
15288;DHT22;7745;48.708;9.026;2022-09-28T01:11:15;9.10;99.90
15288;DHT22;7745;48.708;9.026;2022-09-28T01:13:43;9.40;99.90
15288;DHT22;7745;48.708;9.026;2022-09-28T01:16:20;9.30;99.90
15288;DHT22;7745;48.708;9.026;2022-09-28T01:18:57;9.30;99.90
15288;DHT22;7745;48.708;9.026;2022-09-28T01:21:28;9.20;99.90
15288;DHT22;7745;48.708;9.026;2022-09-28T01:24:13;9.40;99.90
15288;DHT22;7745;48.708;9.026;2022-09-28T01:26:55;9.10;99.90
15288;DHT22;7745;48.708;9.026;2022-09-28T01:29:33;9.10;99.90
15288;DHT22;7745;48.708;9.026;2022-09-28T01:32:10;9.20;99.90
15288;DHT22;7745;48.708;9.026;2022-09-28T01:34:42;9.20;99.90
15288;DHT22;7745;48.708;9.026;2022-09-28T01:37:13;9.30;99.90
15288;DHT22;7745;48.708;9.026;2022-09-28T01:39:44;9.40;99.90
15288;DHT22;7745;48.708;9.026;2022-09-28T01:42:16;9.30;99.90
15288;DHT22;7745;48.708;9.026;2022-09-28T01:44:46;9.30;99.90
15288;DHT22;7745;48.708;9.026;2022-09-28T01:47:16;9.50;99.90
15288;DHT22;7745;48.708;9.026;2022-09-28T01:49:48;9.30;99.90
15288;DHT22;7745;48.708;9.026;2022-09-28T01:52:20;9.30;99.90
15288;DHT22;7745;48.708;9.026;2022-09-28T01:54:53;9.40;99.90
15288;DHT22;7745;48.708;9.026;2022-09-28T01:57:27;9.60;99.90
15288;DHT22;7745;48.708;9.026;2022-09-28T01:59:59;9.50;99.90
15288;DHT22;7745;48.708;9.026;2022-09-28T02:02:31;9.40;99.90
15288;DHT22;7745;48.708;9.026;2022-09-28T02:05:03;9.40;99.90
15288;DHT22;7745;48.708;9.026;2022-09-28T02:07:36;9.60;99.90
15288;DHT22;7745;48.708;9.026;2022-09-28T02:10:08;9.70;99.90
15288;DHT22;7745;48.708;9.026;2022-09-28T02:12:40;9.40;99.90
15288;DHT22;7745;48.708;9.026;2022-09-28T02:15:12;9.40;99.90
15288;DHT22;7745;48.708;9.026;2022-09-28T02:17:39;9.40;99.90
15288;DHT22;7745;48.708;9.026;2022-09-28T02:20:07;9.50;99.90
15288;DHT22;7745;48.708;9.026;2022-09-28T02:22:39;9.40;99.90
15288;DHT22;7745;48.708;9.026;2022-09-28T02:25:09;9.40;99.90
15288;DHT22;7745;48.708;9.026;2022-09-28T02:27:41;9.50;99.90
15288;DHT22;7745;48.708;9.026;2022-09-28T02:30:10;9.40;99.90
15288;DHT22;7745;48.708;9.026;2022-09-28T02:32:39;9.40;99.90
15288;DHT22;7745;48.708;9.026;2022-09-28T02:35:10;9.60;99.90
15288;DHT22;7745;48.708;9.026;2022-09-28T02:37:37;9.70;99.90
15288;DHT22;7745;48.708;9.026;2022-09-28T02:40:11;9.70;99.90
15288;DHT22;7745;48.708;9.026;2022-09-28T02:42:46;9.50;99.90
15288;DHT22;7745;48.708;9.026;2022-09-28T02:45:27;9.70;99.90
15288;DHT22;7745;48.708;9.026;2022-09-28T02:48:02;9.50;99.90
15288;DHT22;7745;48.708;9.026;2022-09-28T02:50:38;9.70;99.90
15288;DHT22;7745;48.708;9.026;2022-09-28T02:53:25;9.50;99.90
15288;DHT22;7745;48.708;9.026;2022-09-28T02:56:07;9.50;99.90
15288;DHT22;7745;48.708;9.026;2022-09-28T02:58:47;9.50;99.90
15288;DHT22;7745;48.708;9.026;2022-09-28T03:01:22;9.80;99.90
15288;DHT22;7745;48.708;9.026;2022-09-28T03:03:54;9.50;99.90
15288;DHT22;7745;48.708;9.026;2022-09-28T03:06:31;9.60;99.90
15288;DHT22;7745;48.708;9.026;2022-09-28T03:09:03;9.40;99.90
15288;DHT22;7745;48.708;9.026;2022-09-28T03:11:35;9.60;99.90
15288;DHT22;7745;48.708;9.026;2022-09-28T03:14:05;9.70;99.90
15288;DHT22;7745;48.708;9.026;2022-09-28T03:16:32;9.70;99.90
15288;DHT22;7745;48.708;9.026;2022-09-28T03:18:59;9.60;99.90
15288;DHT22;7745;48.708;9.026;2022-09-28T03:21:26;9.40;99.90
15288;DHT22;7745;48.708;9.026;2022-09-28T03:23:53;9.50;99.90
15288;DHT22;7745;48.708;9.026;2022-09-28T03:26:20;9.50;99.90
15288;DHT22;7745;48.708;9.026;2022-09-28T03:28:47;9.50;99.90
15288;DHT22;7745;48.708;9.026;2022-09-28T03:31:15;9.40;99.90
15288;DHT22;7745;48.708;9.026;2022-09-28T03:33:41;9.50;99.90
15288;DHT22;7745;48.708;9.026;2022-09-28T03:36:08;9.50;99.90
15288;DHT22;7745;48.708;9.026;2022-09-28T03:38:35;9.50;99.90
15288;DHT22;7745;48.708;9.026;2022-09-28T03:41:02;9.40;99.90
15288;DHT22;7745;48.708;9.026;2022-09-28T03:43:29;9.40;99.90
15288;DHT22;7745;48.708;9.026;2022-09-28T03:45:57;9.40;99.90
15288;DHT22;7745;48.708;9.026;2022-09-28T03:48:26;9.40;99.90
15288;DHT22;7745;48.708;9.026;2022-09-28T03:50:54;9.40;99.90
15288;DHT22;7745;48.708;9.026;2022-09-28T03:53:22;9.60;99.90
15288;DHT22;7745;48.708;9.026;2022-09-28T03:55:51;9.40;99.90
15288;DHT22;7745;48.708;9.026;2022-09-28T03:58:18;9.40;99.90
15288;DHT22;7745;48.708;9.026;2022-09-28T04:00:45;9.40;99.90
15288;DHT22;7745;48.708;9.026;2022-09-28T04:03:31;9.40;99.90
15288;DHT22;7745;48.708;9.026;2022-09-28T04:06:17;9.50;99.90
15288;DHT22;7745;48.708;9.026;2022-09-28T04:08:57;9.40;99.90
15288;DHT22;7745;48.708;9.026;2022-09-28T04:11:38;9.50;99.90
15288;DHT22;7745;48.708;9.026;2022-09-28T04:14:18;9.30;99.90
15288;DHT22;7745;48.708;9.026;2022-09-28T04:20:37;9.30;99.90
15288;DHT22;7745;48.708;9.026;2022-09-28T04:30:17;9.00;99.90
15288;DHT22;7745;48.708;9.026;2022-09-28T04:33:41;8.90;99.90
15288;DHT22;7745;48.708;9.026;2022-09-28T04:36:55;8.90;99.90
15288;DHT22;7745;48.708;9.026;2022-09-28T04:50:19;8.90;99.90
15288;DHT22;7745;48.708;9.026;2022-09-28T04:53:40;8.80;99.90
15288;DHT22;7745;48.708;9.026;2022-09-28T04:56:27;8.90;99.90
15288;DHT22;7745;48.708;9.026;2022-09-28T05:02:32;8.80;99.90
15288;DHT22;7745;48.708;9.026;2022-09-28T05:05:05;8.90;99.90
15288;DHT22;7745;48.708;9.026;2022-09-28T05:07:32;8.80;99.90
15288;DHT22;7745;48.708;9.026;2022-09-28T05:10:01;8.90;99.90
15288;DHT22;7745;48.708;9.026;2022-09-28T05:12:28;8.80;99.90
15288;DHT22;7745;48.708;9.026;2022-09-28T05:14:55;8.80;99.90
15288;DHT22;7745;48.708;9.026;2022-09-28T05:17:38;9.00;99.90
15288;DHT22;7745;48.708;9.026;2022-09-28T05:20:33;8.80;99.90
15288;DHT22;7745;48.708;9.026;2022-09-28T05:23:47;8.70;99.90
15288;DHT22;7745;48.708;9.026;2022-09-28T05:26:14;8.80;99.90
15288;DHT22;7745;48.708;9.026;2022-09-28T05:28:40;8.70;99.90
15288;DHT22;7745;48.708;9.026;2022-09-28T05:31:09;8.90;99.90
15288;DHT22;7745;48.708;9.026;2022-09-28T05:33:37;8.80;99.90
15288;DHT22;7745;48.708;9.026;2022-09-28T05:36:07;8.80;99.90
15288;DHT22;7745;48.708;9.026;2022-09-28T05:38:36;8.90;99.90
15288;DHT22;7745;48.708;9.026;2022-09-28T05:41:03;8.90;99.90
15288;DHT22;7745;48.708;9.026;2022-09-28T05:43:30;8.80;99.90
15288;DHT22;7745;48.708;9.026;2022-09-28T05:45:58;8.80;99.90
15288;DHT22;7745;48.708;9.026;2022-09-28T05:48:24;8.80;99.90
15288;DHT22;7745;48.708;9.026;2022-09-28T05:50:53;8.90;99.90
15288;DHT22;7745;48.708;9.026;2022-09-28T05:53:20;9.00;99.90
15288;DHT22;7745;48.708;9.026;2022-09-28T05:55:47;8.80;99.90
15288;DHT22;7745;48.708;9.026;2022-09-28T05:58:18;8.80;99.90
15288;DHT22;7745;48.708;9.026;2022-09-28T06:00:45;8.90;99.90
15288;DHT22;7745;48.708;9.026;2022-09-28T06:03:13;8.80;99.90
15288;DHT22;7745;48.708;9.026;2022-09-28T06:05:40;8.80;99.90
15288;DHT22;7745;48.708;9.026;2022-09-28T06:08:09;8.80;99.90
15288;DHT22;7745;48.708;9.026;2022-09-28T06:10:36;8.80;99.90
15288;DHT22;7745;48.708;9.026;2022-09-28T06:13:03;8.80;99.90
15288;DHT22;7745;48.708;9.026;2022-09-28T06:15:32;8.80;99.90
15288;DHT22;7745;48.708;9.026;2022-09-28T06:18:00;8.80;99.90
15288;DHT22;7745;48.708;9.026;2022-09-28T06:20:30;9.00;99.90
15288;DHT22;7745;48.708;9.026;2022-09-28T06:22:57;8.90;99.90
15288;DHT22;7745;48.708;9.026;2022-09-28T06:25:25;8.90;99.90
15288;DHT22;7745;48.708;9.026;2022-09-28T06:27:54;8.90;99.90
15288;DHT22;7745;48.708;9.026;2022-09-28T06:30:21;9.00;99.90
15288;DHT22;7745;48.708;9.026;2022-09-28T06:32:51;9.00;99.90
15288;DHT22;7745;48.708;9.026;2022-09-28T06:35:18;9.20;99.90
15288;DHT22;7745;48.708;9.026;2022-09-28T06:37:45;9.20;99.90
15288;DHT22;7745;48.708;9.026;2022-09-28T06:40:12;9.20;99.90
15288;DHT22;7745;48.708;9.026;2022-09-28T06:42:41;9.20;99.90
15288;DHT22;7745;48.708;9.026;2022-09-28T06:45:08;9.40;99.90
15288;DHT22;7745;48.708;9.026;2022-09-28T06:47:35;9.20;99.90
15288;DHT22;7745;48.708;9.026;2022-09-28T06:50:02;9.30;99.90
15288;DHT22;7745;48.708;9.026;2022-09-28T06:52:37;9.40;99.90
15288;DHT22;7745;48.708;9.026;2022-09-28T06:55:04;9.40;99.90
15288;DHT22;7745;48.708;9.026;2022-09-28T06:57:31;9.50;99.90
15288;DHT22;7745;48.708;9.026;2022-09-28T06:59:59;9.60;99.90
15288;DHT22;7745;48.708;9.026;2022-09-28T07:02:26;9.50;99.90
15288;DHT22;7745;48.708;9.026;2022-09-28T07:04:53;9.50;99.90
15288;DHT22;7745;48.708;9.026;2022-09-28T07:07:20;9.50;99.90
15288;DHT22;7745;48.708;9.026;2022-09-28T07:09:52;9.10;99.90
15288;DHT22;7745;48.708;9.026;2022-09-28T07:12:25;9.20;99.90
15288;DHT22;7745;48.708;9.026;2022-09-28T07:14:52;9.10;99.90
15288;DHT22;7745;48.708;9.026;2022-09-28T07:17:23;9.20;99.90
15288;DHT22;7745;48.708;9.026;2022-09-28T07:19:51;9.00;99.90
15288;DHT22;7745;48.708;9.026;2022-09-28T07:22:36;8.90;99.90
15288;DHT22;7745;48.708;9.026;2022-09-28T07:25:04;9.00;99.90
15288;DHT22;7745;48.708;9.026;2022-09-28T07:27:31;8.90;99.90
15288;DHT22;7745;48.708;9.026;2022-09-28T07:29:58;9.00;99.90
15288;DHT22;7745;48.708;9.026;2022-09-28T07:32:27;9.20;99.90
15288;DHT22;7745;48.708;9.026;2022-09-28T07:34:53;9.10;99.90
15288;DHT22;7745;48.708;9.026;2022-09-28T07:37:20;9.10;99.90
15288;DHT22;7745;48.708;9.026;2022-09-28T07:39:49;9.10;99.90
15288;DHT22;7745;48.708;9.026;2022-09-28T07:42:33;9.50;99.90
15288;DHT22;7745;48.708;9.026;2022-09-28T07:45:00;9.20;99.90
15288;DHT22;7745;48.708;9.026;2022-09-28T07:47:29;9.40;99.90
15288;DHT22;7745;48.708;9.026;2022-09-28T07:49:56;9.40;99.90
15288;DHT22;7745;48.708;9.026;2022-09-28T07:52:23;9.50;99.90
15288;DHT22;7745;48.708;9.026;2022-09-28T07:54:51;9.50;99.90
15288;DHT22;7745;48.708;9.026;2022-09-28T07:57:18;9.50;99.90
15288;DHT22;7745;48.708;9.026;2022-09-28T07:59:45;9.60;99.90
15288;DHT22;7745;48.708;9.026;2022-09-28T08:02:12;9.70;99.90
15288;DHT22;7745;48.708;9.026;2022-09-28T08:04:43;9.80;99.90
15288;DHT22;7745;48.708;9.026;2022-09-28T08:07:12;9.80;99.90
15288;DHT22;7745;48.708;9.026;2022-09-28T08:09:40;9.80;99.90
15288;DHT22;7745;48.708;9.026;2022-09-28T08:12:08;9.80;99.90
15288;DHT22;7745;48.708;9.026;2022-09-28T08:14:35;10.00;99.90
15288;DHT22;7745;48.708;9.026;2022-09-28T08:17:02;10.10;99.90
15288;DHT22;7745;48.708;9.026;2022-09-28T08:19:29;9.90;99.90
15288;DHT22;7745;48.708;9.026;2022-09-28T08:22:18;10.00;99.90
15288;DHT22;7745;48.708;9.026;2022-09-28T08:24:45;10.00;99.90
15288;DHT22;7745;48.708;9.026;2022-09-28T08:27:12;10.20;99.90
15288;DHT22;7745;48.708;9.026;2022-09-28T08:29:39;10.30;99.90
15288;DHT22;7745;48.708;9.026;2022-09-28T08:32:08;10.30;99.90
15288;DHT22;7745;48.708;9.026;2022-09-28T08:34:36;10.30;99.90
15288;DHT22;7745;48.708;9.026;2022-09-28T08:37:03;10.40;99.90
15288;DHT22;7745;48.708;9.026;2022-09-28T08:39:31;10.50;99.90
15288;DHT22;7745;48.708;9.026;2022-09-28T08:42:07;10.40;99.90
15288;DHT22;7745;48.708;9.026;2022-09-28T08:44:41;10.50;99.90
15288;DHT22;7745;48.708;9.026;2022-09-28T08:47:14;10.60;99.90
15288;DHT22;7745;48.708;9.026;2022-09-28T08:50:17;10.60;99.90
15288;DHT22;7745;48.708;9.026;2022-09-28T08:52:47;10.70;99.90
15288;DHT22;7745;48.708;9.026;2022-09-28T08:55:25;10.60;99.90
15288;DHT22;7745;48.708;9.026;2022-09-28T08:57:57;10.60;99.90
15288;DHT22;7745;48.708;9.026;2022-09-28T09:00:32;10.60;99.90
15288;DHT22;7745;48.708;9.026;2022-09-28T09:03:04;10.60;99.90
15288;DHT22;7745;48.708;9.026;2022-09-28T09:05:47;10.60;99.90
15288;DHT22;7745;48.708;9.026;2022-09-28T09:08:26;10.70;99.90
15288;DHT22;7745;48.708;9.026;2022-09-28T09:11:03;10.50;99.90
15288;DHT22;7745;48.708;9.026;2022-09-28T09:13:48;10.60;99.90
15288;DHT22;7745;48.708;9.026;2022-09-28T09:16:24;10.50;99.90
15288;DHT22;7745;48.708;9.026;2022-09-28T09:18:57;10.50;99.90
15288;DHT22;7745;48.708;9.026;2022-09-28T09:21:40;10.40;99.90
15288;DHT22;7745;48.708;9.026;2022-09-28T09:24:21;10.50;99.90
15288;DHT22;7745;48.708;9.026;2022-09-28T09:26:58;10.70;99.90
15288;DHT22;7745;48.708;9.026;2022-09-28T09:29:40;10.80;99.90
15288;DHT22;7745;48.708;9.026;2022-09-28T09:32:20;10.80;99.90
15288;DHT22;7745;48.708;9.026;2022-09-28T09:35:06;10.60;99.90
15288;DHT22;7745;48.708;9.026;2022-09-28T09:37:56;10.70;99.90
15288;DHT22;7745;48.708;9.026;2022-09-28T09:40:44;10.70;99.90
15288;DHT22;7745;48.708;9.026;2022-09-28T09:43:41;10.70;99.90
15288;DHT22;7745;48.708;9.026;2022-09-28T09:46:18;10.90;99.90
15288;DHT22;7745;48.708;9.026;2022-09-28T09:48:49;10.80;99.90
15288;DHT22;7745;48.708;9.026;2022-09-28T09:51:23;10.90;99.90
15288;DHT22;7745;48.708;9.026;2022-09-28T09:53:58;11.00;99.90
15288;DHT22;7745;48.708;9.026;2022-09-28T09:56:31;11.10;99.90
15288;DHT22;7745;48.708;9.026;2022-09-28T09:59:05;11.10;99.90
15288;DHT22;7745;48.708;9.026;2022-09-28T10:01:35;11.10;99.90
15288;DHT22;7745;48.708;9.026;2022-09-28T10:04:06;11.10;99.90
15288;DHT22;7745;48.708;9.026;2022-09-28T10:06:37;11.20;99.90
15288;DHT22;7745;48.708;9.026;2022-09-28T10:09:11;11.30;99.90
15288;DHT22;7745;48.708;9.026;2022-09-28T10:11:42;11.30;99.90
15288;DHT22;7745;48.708;9.026;2022-09-28T10:14:14;11.30;99.90
15288;DHT22;7745;48.708;9.026;2022-09-28T10:16:41;11.30;99.90
15288;DHT22;7745;48.708;9.026;2022-09-28T10:19:10;11.40;99.90
15288;DHT22;7745;48.708;9.026;2022-09-28T10:21:37;11.50;99.90
15288;DHT22;7745;48.708;9.026;2022-09-28T10:24:14;11.40;99.90
15288;DHT22;7745;48.708;9.026;2022-09-28T10:26:45;11.50;99.90
15288;DHT22;7745;48.708;9.026;2022-09-28T10:29:16;11.50;99.90
15288;DHT22;7745;48.708;9.026;2022-09-28T10:31:47;11.50;99.90
15288;DHT22;7745;48.708;9.026;2022-09-28T10:34:16;11.50;99.90
15288;DHT22;7745;48.708;9.026;2022-09-28T10:36:47;11.50;99.90
15288;DHT22;7745;48.708;9.026;2022-09-28T10:39:32;11.50;99.90
15288;DHT22;7745;48.708;9.026;2022-09-28T10:42:04;11.50;99.90
15288;DHT22;7745;48.708;9.026;2022-09-28T10:44:37;11.60;99.90
15288;DHT22;7745;48.708;9.026;2022-09-28T10:47:15;11.50;99.90
15288;DHT22;7745;48.708;9.026;2022-09-28T10:49:44;11.70;99.90
15288;DHT22;7745;48.708;9.026;2022-09-28T10:52:36;11.70;99.90
15288;DHT22;7745;48.708;9.026;2022-09-28T10:55:28;11.70;99.90
15288;DHT22;7745;48.708;9.026;2022-09-28T10:57:56;11.70;99.90
15288;DHT22;7745;48.708;9.026;2022-09-28T11:00:37;11.70;99.90
15288;DHT22;7745;48.708;9.026;2022-09-28T11:03:13;11.70;99.90
15288;DHT22;7745;48.708;9.026;2022-09-28T11:05:52;11.70;99.90
15288;DHT22;7745;48.708;9.026;2022-09-28T11:08:24;11.70;99.90
15288;DHT22;7745;48.708;9.026;2022-09-28T11:11:01;11.80;99.90
15288;DHT22;7745;48.708;9.026;2022-09-28T11:13:29;11.80;99.90
15288;DHT22;7745;48.708;9.026;2022-09-28T11:15:57;11.90;99.90
15288;DHT22;7745;48.708;9.026;2022-09-28T11:18:27;12.00;99.90
15288;DHT22;7745;48.708;9.026;2022-09-28T11:21:12;11.90;99.90
15288;DHT22;7745;48.708;9.026;2022-09-28T11:23:40;11.90;99.90
15288;DHT22;7745;48.708;9.026;2022-09-28T11:26:08;11.80;99.90
15288;DHT22;7745;48.708;9.026;2022-09-28T11:28:38;11.90;99.90
15288;DHT22;7745;48.708;9.026;2022-09-28T11:31:10;11.80;99.90
15288;DHT22;7745;48.708;9.026;2022-09-28T11:33:39;11.80;99.90
15288;DHT22;7745;48.708;9.026;2022-09-28T11:36:23;11.80;99.90
15288;DHT22;7745;48.708;9.026;2022-09-28T11:38:58;11.90;99.90
15288;DHT22;7745;48.708;9.026;2022-09-28T11:41:40;12.00;99.90
15288;DHT22;7745;48.708;9.026;2022-09-28T11:44:29;12.00;99.90
15288;DHT22;7745;48.708;9.026;2022-09-28T11:50:11;12.10;99.90
15288;DHT22;7745;48.708;9.026;2022-09-28T11:52:45;12.10;99.90
15288;DHT22;7745;48.708;9.026;2022-09-28T11:55:18;12.00;99.90
15288;DHT22;7745;48.708;9.026;2022-09-28T11:57:55;12.00;99.90
15288;DHT22;7745;48.708;9.026;2022-09-28T12:00:26;11.90;99.90
15288;DHT22;7745;48.708;9.026;2022-09-28T12:02:59;11.90;99.90
15288;DHT22;7745;48.708;9.026;2022-09-28T12:05:32;11.90;99.90
15288;DHT22;7745;48.708;9.026;2022-09-28T12:08:03;11.90;99.90
15288;DHT22;7745;48.708;9.026;2022-09-28T12:10:36;12.00;99.90
15288;DHT22;7745;48.708;9.026;2022-09-28T12:13:10;12.10;99.90
15288;DHT22;7745;48.708;9.026;2022-09-28T12:15:44;12.10;99.90
15288;DHT22;7745;48.708;9.026;2022-09-28T12:18:18;12.10;99.90
15288;DHT22;7745;48.708;9.026;2022-09-28T12:20:49;12.10;99.90
15288;DHT22;7745;48.708;9.026;2022-09-28T12:23:19;12.20;99.90
15288;DHT22;7745;48.708;9.026;2022-09-28T12:25:54;12.30;99.90
15288;DHT22;7745;48.708;9.026;2022-09-28T12:28:28;12.30;99.90
15288;DHT22;7745;48.708;9.026;2022-09-28T12:31:02;12.40;99.90
15288;DHT22;7745;48.708;9.026;2022-09-28T12:33:35;12.40;99.90
15288;DHT22;7745;48.708;9.026;2022-09-28T12:36:08;12.40;99.90
15288;DHT22;7745;48.708;9.026;2022-09-28T12:38:54;12.40;99.90
15288;DHT22;7745;48.708;9.026;2022-09-28T12:41:35;12.40;99.90
15288;DHT22;7745;48.708;9.026;2022-09-28T12:47:38;12.40;99.90
15288;DHT22;7745;48.708;9.026;2022-09-28T12:50:18;12.30;99.90
15288;DHT22;7745;48.708;9.026;2022-09-28T12:53:02;12.50;99.90
15288;DHT22;7745;48.708;9.026;2022-09-28T12:55:40;12.50;99.90
15288;DHT22;7745;48.708;9.026;2022-09-28T12:58:22;12.50;99.90
15288;DHT22;7745;48.708;9.026;2022-09-28T13:01:05;12.50;99.90
15288;DHT22;7745;48.708;9.026;2022-09-28T13:03:53;12.50;99.90
15288;DHT22;7745;48.708;9.026;2022-09-28T13:06:39;12.50;99.90
15288;DHT22;7745;48.708;9.026;2022-09-28T13:09:17;12.50;99.90
15288;DHT22;7745;48.708;9.026;2022-09-28T13:11:56;12.60;99.90
15288;DHT22;7745;48.708;9.026;2022-09-28T13:14:51;12.60;99.90
15288;DHT22;7745;48.708;9.026;2022-09-28T13:17:27;12.70;99.90
15288;DHT22;7745;48.708;9.026;2022-09-28T13:20:02;12.80;99.90
15288;DHT22;7745;48.708;9.026;2022-09-28T13:22:41;12.70;99.90
15288;DHT22;7745;48.708;9.026;2022-09-28T13:25:12;12.70;99.90
15288;DHT22;7745;48.708;9.026;2022-09-28T13:27:44;12.70;99.90
15288;DHT22;7745;48.708;9.026;2022-09-28T13:30:13;12.70;99.90
15288;DHT22;7745;48.708;9.026;2022-09-28T13:32:42;12.70;99.90
15288;DHT22;7745;48.708;9.026;2022-09-28T13:35:13;12.80;99.90
15288;DHT22;7745;48.708;9.026;2022-09-28T13:37:41;12.70;99.90
15288;DHT22;7745;48.708;9.026;2022-09-28T13:40:08;12.70;99.90
15288;DHT22;7745;48.708;9.026;2022-09-28T13:42:58;12.60;99.90
15288;DHT22;7745;48.708;9.026;2022-09-28T13:45:35;12.60;99.90
15288;DHT22;7745;48.708;9.026;2022-09-28T13:48:13;12.70;99.90
15288;DHT22;7745;48.708;9.026;2022-09-28T13:51:01;12.60;99.90
15288;DHT22;7745;48.708;9.026;2022-09-28T13:53:39;12.50;99.90
15288;DHT22;7745;48.708;9.026;2022-09-28T13:56:19;12.50;99.90
15288;DHT22;7745;48.708;9.026;2022-09-28T13:58:52;12.50;99.90
15288;DHT22;7745;48.708;9.026;2022-09-28T14:01:23;12.50;99.90
15288;DHT22;7745;48.708;9.026;2022-09-28T14:03:55;12.50;99.90
15288;DHT22;7745;48.708;9.026;2022-09-28T14:06:35;12.50;99.90
15288;DHT22;7745;48.708;9.026;2022-09-28T14:09:21;12.60;99.90
15288;DHT22;7745;48.708;9.026;2022-09-28T14:14:51;12.60;99.90
15288;DHT22;7745;48.708;9.026;2022-09-28T14:17:52;12.60;99.90
15288;DHT22;7745;48.708;9.026;2022-09-28T14:20:24;12.50;99.90
15288;DHT22;7745;48.708;9.026;2022-09-28T14:26:04;12.60;99.90
15288;DHT22;7745;48.708;9.026;2022-09-28T14:28:46;12.60;99.90
15288;DHT22;7745;48.708;9.026;2022-09-28T14:31:23;12.50;99.90
15288;DHT22;7745;48.708;9.026;2022-09-28T14:33:55;12.50;99.90
15288;DHT22;7745;48.708;9.026;2022-09-28T14:36:25;12.60;99.90
15288;DHT22;7745;48.708;9.026;2022-09-28T14:39:18;12.60;99.90
15288;DHT22;7745;48.708;9.026;2022-09-28T14:42:09;12.50;99.90
15288;DHT22;7745;48.708;9.026;2022-09-28T14:47:41;12.40;99.90
15288;DHT22;7745;48.708;9.026;2022-09-28T14:50:21;12.40;99.90
15288;DHT22;7745;48.708;9.026;2022-09-28T14:52:51;12.40;99.90
15288;DHT22;7745;48.708;9.026;2022-09-28T14:55:25;12.30;99.90
15288;DHT22;7745;48.708;9.026;2022-09-28T14:57:57;12.30;99.90
15288;DHT22;7745;48.708;9.026;2022-09-28T15:00:25;12.30;99.90
15288;DHT22;7745;48.708;9.026;2022-09-28T15:02:58;12.30;99.90
15288;DHT22;7745;48.708;9.026;2022-09-28T15:05:27;12.30;99.90
15288;DHT22;7745;48.708;9.026;2022-09-28T15:07:55;12.30;99.90
15288;DHT22;7745;48.708;9.026;2022-09-28T15:10:29;12.30;99.90
15288;DHT22;7745;48.708;9.026;2022-09-28T15:12:59;12.30;99.90
15288;DHT22;7745;48.708;9.026;2022-09-28T15:15:30;12.30;99.90
15288;DHT22;7745;48.708;9.026;2022-09-28T15:18:15;12.40;99.90
15288;DHT22;7745;48.708;9.026;2022-09-28T15:20:46;12.30;99.90
15288;DHT22;7745;48.708;9.026;2022-09-28T15:23:25;12.30;99.90
15288;DHT22;7745;48.708;9.026;2022-09-28T15:25:54;12.40;99.90
15288;DHT22;7745;48.708;9.026;2022-09-28T15:28:23;12.30;99.90
15288;DHT22;7745;48.708;9.026;2022-09-28T15:30:50;12.30;99.90
15288;DHT22;7745;48.708;9.026;2022-09-28T15:33:24;12.30;99.90
15288;DHT22;7745;48.708;9.026;2022-09-28T15:36:15;12.30;99.90
15288;DHT22;7745;48.708;9.026;2022-09-28T15:38:48;12.20;99.90
15288;DHT22;7745;48.708;9.026;2022-09-28T15:41:17;12.20;99.90
15288;DHT22;7745;48.708;9.026;2022-09-28T15:44:03;12.20;99.90
15288;DHT22;7745;48.708;9.026;2022-09-28T15:46:32;12.10;99.90
15288;DHT22;7745;48.708;9.026;2022-09-28T15:49:00;12.30;99.90
15288;DHT22;7745;48.708;9.026;2022-09-28T15:51:30;12.10;99.90
15288;DHT22;7745;48.708;9.026;2022-09-28T15:54:00;12.10;99.90
15288;DHT22;7745;48.708;9.026;2022-09-28T15:56:29;12.00;99.90
15288;DHT22;7745;48.708;9.026;2022-09-28T15:59:17;12.00;99.90
15288;DHT22;7745;48.708;9.026;2022-09-28T16:01:46;12.00;99.90
15288;DHT22;7745;48.708;9.026;2022-09-28T16:04:35;12.00;99.90
15288;DHT22;7745;48.708;9.026;2022-09-28T16:07:28;12.00;99.90
15288;DHT22;7745;48.708;9.026;2022-09-28T16:10:27;11.90;99.90
15288;DHT22;7745;48.708;9.026;2022-09-28T16:12:57;11.90;99.90
15288;DHT22;7745;48.708;9.026;2022-09-28T16:15:34;11.90;99.90
15288;DHT22;7745;48.708;9.026;2022-09-28T16:18:03;11.90;99.90
15288;DHT22;7745;48.708;9.026;2022-09-28T16:20:32;11.90;99.90
15288;DHT22;7745;48.708;9.026;2022-09-28T16:23:07;11.80;99.90
15288;DHT22;7745;48.708;9.026;2022-09-28T16:25:35;11.70;99.90
15288;DHT22;7745;48.708;9.026;2022-09-28T16:28:04;11.70;99.90
15288;DHT22;7745;48.708;9.026;2022-09-28T16:30:33;11.60;99.90
15288;DHT22;7745;48.708;9.026;2022-09-28T16:33:01;11.60;99.90
15288;DHT22;7745;48.708;9.026;2022-09-28T16:35:30;11.60;99.90
15288;DHT22;7745;48.708;9.026;2022-09-28T16:38:10;11.50;99.90
15288;DHT22;7745;48.708;9.026;2022-09-28T16:40:39;11.50;99.90
15288;DHT22;7745;48.708;9.026;2022-09-28T16:43:07;11.40;99.90
15288;DHT22;7745;48.708;9.026;2022-09-28T16:45:36;11.40;99.90
15288;DHT22;7745;48.708;9.026;2022-09-28T16:48:03;11.40;99.90
15288;DHT22;7745;48.708;9.026;2022-09-28T16:50:30;11.30;99.90
15288;DHT22;7745;48.708;9.026;2022-09-28T16:53:00;11.30;99.90
15288;DHT22;7745;48.708;9.026;2022-09-28T16:55:45;11.20;99.90
15288;DHT22;7745;48.708;9.026;2022-09-28T16:58:14;11.10;99.90
15288;DHT22;7745;48.708;9.026;2022-09-28T17:00:42;11.00;99.90
15288;DHT22;7745;48.708;9.026;2022-09-28T17:03:12;10.90;99.90
15288;DHT22;7745;48.708;9.026;2022-09-28T17:05:39;10.80;99.90
15288;DHT22;7745;48.708;9.026;2022-09-28T17:08:05;10.70;99.90
15288;DHT22;7745;48.708;9.026;2022-09-28T17:10:36;10.70;99.90
15288;DHT22;7745;48.708;9.026;2022-09-28T17:13:04;10.60;99.90